createdAt,value
2022-11-05T00:01:16.085Z,99668.55
2022-11-05T00:04:03.008Z,99671.84
2022-11-05T00:06:49.725Z,99676.32
2022-11-05T00:09:29.570Z,99675.09
2022-11-05T00:12:18.906Z,99678.74
2022-11-05T00:15:06.383Z,99677.84
2022-11-05T00:17:34.380Z,99672.95
2022-11-05T00:20:02.359Z,99677.70
2022-11-05T00:22:49.234Z,99677.72
2022-11-05T00:25:18.686Z,99676.81
2022-11-05T00:27:50.404Z,99678.00
2022-11-05T00:30:25.547Z,99676.02
2022-11-05T00:32:53.997Z,99683.77
2022-11-05T00:35:22.597Z,99688.38
2022-11-05T00:37:53.264Z,99689.90
2022-11-05T00:40:21.225Z,99690.55
2022-11-05T00:43:08.098Z,99688.50
2022-11-05T00:45:37.778Z,99687.09
2022-11-05T00:48:24.796Z,99687.59
2022-11-05T00:50:52.732Z,99692.00
2022-11-05T00:53:20.599Z,99687.93
2022-11-05T00:55:48.486Z,99691.73
2022-11-05T00:58:21.846Z,99700.64
2022-11-05T01:00:52.825Z,99705.44
2022-11-05T01:03:25.885Z,99704.75
2022-11-05T01:05:58.181Z,99710.30
2022-11-05T01:08:27.989Z,99717.23
2022-11-05T01:10:58.731Z,99714.67
2022-11-05T01:13:30.227Z,99714.61
2022-11-05T01:15:58.103Z,99718.06
2022-11-05T01:18:26.045Z,99718.45
2022-11-05T01:20:53.951Z,99718.18
2022-11-05T01:23:22.215Z,99720.84
2022-11-05T01:25:50.243Z,99717.71
2022-11-05T01:28:18.140Z,99714.65
2022-11-05T01:30:46.047Z,99719.73
2022-11-05T01:33:14.192Z,99721.11
2022-11-05T01:35:42.366Z,99724.36
2022-11-05T01:38:10.224Z,99728.36
2022-11-05T01:40:42.557Z,99729.10
2022-11-05T01:43:23.081Z,99737.19
2022-11-05T01:45:58.503Z,99737.71
2022-11-05T01:48:35.148Z,99742.20
2022-11-05T01:51:08.937Z,99743.71
2022-11-05T01:53:47.174Z,99745.02
2022-11-05T01:56:23.818Z,99749.86
2022-11-05T01:59:05.655Z,99751.47
2022-11-05T02:01:33.655Z,99756.89
2022-11-05T02:04:08.121Z,99762.84
2022-11-05T02:06:45.952Z,99769.88
2022-11-05T02:09:25.478Z,99778.66
2022-11-05T02:11:53.612Z,99779.23
2022-11-05T02:14:21.698Z,99782.69
2022-11-05T02:17:01.888Z,99786.10
2022-11-05T02:20:09.622Z,99786.95
2022-11-05T02:22:51.951Z,99789.30
2022-11-05T02:26:08.209Z,99789.98
2022-11-05T02:29:14.342Z,99789.59
2022-11-05T02:32:00.620Z,99790.45
2022-11-05T02:34:58.932Z,99794.69
2022-11-05T02:37:46.028Z,99797.77
2022-11-05T02:40:31.465Z,99795.85
2022-11-05T02:43:15.193Z,99796.98
2022-11-05T02:46:20.683Z,99797.05
2022-11-05T02:49:00.087Z,99795.57
2022-11-05T02:51:58.326Z,99795.80
2022-11-05T02:54:35.864Z,99798.87
2022-11-05T02:57:04.897Z,99799.50
2022-11-05T02:59:33.003Z,99801.25
2022-11-05T03:02:03.860Z,99806.84
2022-11-05T03:04:32.379Z,99809.27
2022-11-05T03:07:22.600Z,99812.09
2022-11-05T03:10:14.036Z,99817.36
2022-11-05T03:13:00.363Z,99818.64
2022-11-05T03:15:56.240Z,99822.68
2022-11-05T03:18:46.280Z,99829.73
2022-11-05T03:21:26.214Z,99839.25
2022-11-05T03:24:10.854Z,99840.27
2022-11-05T03:26:45.390Z,99851.46
2022-11-05T03:29:22.457Z,99854.83
2022-11-05T03:31:54.294Z,99853.77
2022-11-05T03:34:29.546Z,99861.58
2022-11-05T03:36:58.712Z,99865.71
2022-11-05T03:39:36.564Z,99872.19
2022-11-05T03:42:08.758Z,99877.05
2022-11-05T03:44:43.374Z,99882.05
2022-11-05T03:47:17.910Z,99885.95
2022-11-05T03:50:13.943Z,99890.16
2022-11-05T03:52:59.137Z,99892.52
2022-11-05T03:55:35.365Z,99891.09
2022-11-05T03:58:05.481Z,99899.02
2022-11-05T04:00:33.845Z,99900.58
2022-11-05T04:03:01.833Z,99906.11
2022-11-05T04:05:29.931Z,99915.14
2022-11-05T04:08:16.652Z,99919.45
2022-11-05T04:11:03.432Z,99926.23
2022-11-05T04:13:32.922Z,99927.35
2022-11-05T04:16:19.344Z,99929.63
2022-11-05T04:18:47.448Z,99929.19
2022-11-05T04:21:34.248Z,99930.17
2022-11-05T04:24:08.195Z,99933.30
2022-11-05T04:26:44.022Z,99940.02
2022-11-05T04:29:30.832Z,99942.44
2022-11-05T04:31:58.805Z,99939.72
2022-11-05T04:34:26.827Z,99942.39
2022-11-05T04:36:54.744Z,99940.44
2022-11-05T04:39:22.640Z,99946.63
2022-11-05T04:41:50.491Z,99950.02
2022-11-05T04:44:18.324Z,99952.38
2022-11-05T04:46:46.199Z,99949.15
2022-11-05T04:49:14.058Z,99950.69
2022-11-05T04:51:41.945Z,99953.14
2022-11-05T04:54:09.807Z,99957.83
2022-11-05T04:56:37.630Z,99964.42
2022-11-05T04:59:05.466Z,99974.05
2022-11-05T05:01:33.592Z,99980.39
2022-11-05T05:04:01.558Z,99982.73
2022-11-05T05:06:29.424Z,99985.52
2022-11-05T05:08:57.335Z,99994.14
2022-11-05T05:11:25.346Z,99995.38
2022-11-05T05:13:53.255Z,100005.97
2022-11-05T05:16:27.466Z,100005.90
2022-11-05T05:18:55.316Z,100016.81
2022-11-05T05:21:39.149Z,100012.45
2022-11-05T05:24:14.932Z,100009.83
2022-11-05T05:26:46.502Z,100012.73
2022-11-05T05:29:15.560Z,100017.52
2022-11-05T05:31:44.502Z,100018.95
2022-11-05T05:34:14.693Z,100025.38
2022-11-05T05:36:42.573Z,100028.63
2022-11-05T05:39:11.001Z,100032.67
2022-11-05T05:41:39.173Z,100047.76
2022-11-05T05:44:07.081Z,100056.90
2022-11-05T05:46:35.046Z,100064.31
2022-11-05T05:49:05.503Z,100075.95
2022-11-05T05:51:37.478Z,100084.14
2022-11-05T05:54:05.528Z,100093.69
2022-11-05T05:56:33.359Z,100094.42
2022-11-05T05:59:01.206Z,100100.09
2022-11-05T06:01:29.171Z,100103.23
2022-11-05T06:03:57.133Z,100112.06
2022-11-05T06:06:25.025Z,100113.16
2022-11-05T06:08:54.179Z,100116.62
2022-11-05T06:11:24.405Z,100121.77
2022-11-05T06:13:52.386Z,100127.80
2022-11-05T06:16:20.410Z,100136.35
2022-11-05T06:18:49.016Z,100141.02
2022-11-05T06:21:17.931Z,100147.84
2022-11-05T06:23:48.299Z,100158.96
2022-11-05T06:26:18.570Z,100162.40
2022-11-05T06:28:46.580Z,100162.27
2022-11-05T06:31:15.532Z,100156.05
2022-11-05T06:33:43.396Z,100159.23
2022-11-05T06:36:17.028Z,100163.48
2022-11-05T06:38:45.351Z,100171.65
2022-11-05T06:41:13.586Z,100179.84
2022-11-05T06:43:44.145Z,100184.77
2022-11-05T06:46:12.243Z,100187.70
2022-11-05T06:48:40.518Z,100187.17
2022-11-05T06:51:09.728Z,100182.58
2022-11-05T06:53:37.627Z,100186.81
2022-11-05T06:56:07.751Z,100186.42
2022-11-05T06:58:36.148Z,100195.13
2022-11-05T07:01:10.066Z,100204.38
2022-11-05T07:03:39.131Z,100213.04
2022-11-05T07:06:07.607Z,100221.27
2022-11-05T07:08:37.622Z,100225.83
2022-11-05T07:11:06.352Z,100226.70
2022-11-05T07:13:34.451Z,100234.34
2022-11-05T07:16:02.347Z,100236.02
2022-11-05T07:18:30.258Z,100235.34
2022-11-05T07:21:00.485Z,100237.10
2022-11-05T07:23:28.384Z,100235.13
2022-11-05T07:25:56.411Z,100247.54
2022-11-05T07:28:24.378Z,100259.10
2022-11-05T07:30:52.331Z,100263.56
2022-11-05T07:33:20.317Z,100260.15
2022-11-05T07:35:48.315Z,100258.70
2022-11-05T07:38:16.897Z,100250.22
2022-11-05T07:40:45.076Z,100249.97
2022-11-05T07:43:13.316Z,100259.60
2022-11-05T07:45:41.871Z,100263.91
2022-11-05T07:48:09.917Z,100264.88
2022-11-05T07:50:38.107Z,100266.99
2022-11-05T07:53:10.716Z,100275.02
2022-11-05T07:55:40.727Z,100282.73
2022-11-05T07:58:10.937Z,100279.31
2022-11-05T08:00:39.576Z,100280.61
2022-11-05T08:03:12.160Z,100276.67
2022-11-05T08:05:44.443Z,100273.08
2022-11-05T08:08:16.392Z,100275.92
2022-11-05T08:10:45.034Z,100277.06
2022-11-05T08:13:14.244Z,100284.80
2022-11-05T08:15:43.292Z,100293.38
2022-11-05T08:18:17.143Z,100299.89
2022-11-05T08:20:46.799Z,100302.59
2022-11-05T08:23:15.661Z,100310.89
2022-11-05T08:25:43.763Z,100316.27
2022-11-05T08:28:12.935Z,100325.23
2022-11-05T08:30:41.089Z,100335.05
2022-11-05T08:33:12.895Z,100339.30
2022-11-05T08:35:41.095Z,100340.67
2022-11-05T08:38:13.816Z,100344.56
2022-11-05T08:40:43.703Z,100353.46
2022-11-05T08:43:14.825Z,100358.42
2022-11-05T08:45:42.917Z,100361.23
2022-11-05T08:48:17.690Z,100369.81
2022-11-05T08:50:47.601Z,100376.27
2022-11-05T08:53:16.434Z,100375.30
2022-11-05T08:55:47.479Z,100381.73
2022-11-05T08:58:17.069Z,100382.77
2022-11-05T09:00:48.882Z,100387.92
2022-11-05T09:03:16.993Z,100394.15
2022-11-05T09:05:45.266Z,100395.00
2022-11-05T09:08:17.077Z,100404.53
2022-11-05T09:10:47.077Z,100405.16
2022-11-05T09:13:19.315Z,100411.48
2022-11-05T09:15:51.444Z,100413.21
2022-11-05T09:18:20.370Z,100425.98
2022-11-05T09:20:48.422Z,100429.27
2022-11-05T09:23:17.040Z,100440.86
2022-11-05T09:25:45.212Z,100438.58
2022-11-05T09:28:20.329Z,100441.87
2022-11-05T09:30:51.886Z,100444.04
2022-11-05T09:33:24.201Z,100446.33
2022-11-05T09:35:53.524Z,100444.25
2022-11-05T09:38:21.668Z,100438.86
2022-11-05T09:41:01.956Z,100442.38
2022-11-05T09:43:49.146Z,100441.70
2022-11-05T09:46:45.320Z,100449.34
2022-11-05T09:49:26.543Z,100450.14
2022-11-05T09:51:57.500Z,100456.02
2022-11-05T09:54:31.523Z,100462.66
2022-11-05T09:57:03.157Z,100462.91
2022-11-05T09:59:51.780Z,100470.14
2022-11-05T10:02:35.476Z,100471.33
2022-11-05T10:05:10.276Z,100476.19
2022-11-05T10:07:52.980Z,100478.02
2022-11-05T10:10:40.901Z,100482.21
2022-11-05T10:13:42.263Z,100483.20
2022-11-05T10:16:30.959Z,100481.63
2022-11-05T10:19:24.160Z,100481.31
2022-11-05T10:22:11.737Z,100480.68
2022-11-05T10:24:44.604Z,100483.02
2022-11-05T10:27:31.821Z,100485.36
2022-11-05T10:30:00.413Z,100487.02
2022-11-05T10:32:38.567Z,100487.62
2022-11-05T10:35:13.295Z,100490.54
2022-11-05T10:37:41.340Z,100493.23
2022-11-05T10:40:29.913Z,100498.17
2022-11-05T10:43:09.637Z,100503.84
2022-11-05T10:45:52.465Z,100503.19
2022-11-05T10:48:52.862Z,100513.14
2022-11-05T10:51:20.737Z,100516.27
2022-11-05T10:54:01.666Z,100517.10
2022-11-05T10:56:39.952Z,100524.30
2022-11-05T10:59:25.513Z,100526.55
2022-11-05T11:02:20.937Z,100533.91
2022-11-05T11:04:56.013Z,100541.52
2022-11-05T11:07:26.505Z,100542.58
2022-11-05T11:09:54.583Z,100548.10
2022-11-05T11:12:40.567Z,100545.52
2022-11-05T11:15:19.658Z,100549.26
2022-11-05T11:17:47.872Z,100555.24
2022-11-05T11:20:31.418Z,100556.09
2022-11-05T11:23:17.969Z,100555.35
2022-11-05T11:26:01.566Z,100561.79
2022-11-05T11:28:53.970Z,100558.35
2022-11-05T11:31:25.160Z,100554.23
2022-11-05T11:34:16.278Z,100551.89
2022-11-05T11:36:48.774Z,100548.34
2022-11-05T11:39:30.477Z,100555.16
2022-11-05T11:42:05.753Z,100553.99
2022-11-05T11:44:43.088Z,100553.91
2022-11-05T11:47:16.677Z,100555.85
2022-11-05T11:49:47.484Z,100559.98
2022-11-05T11:52:39.661Z,100565.73
2022-11-05T11:55:19.748Z,100570.84
2022-11-05T11:58:05.072Z,100573.94
2022-11-05T12:00:46.198Z,100582.16
2022-11-05T12:03:30.901Z,100580.23
2022-11-05T12:06:26.311Z,100573.46
2022-11-05T12:09:11.695Z,100574.15
2022-11-05T12:11:56.978Z,100568.38
2022-11-05T12:14:45.161Z,100570.36
2022-11-05T12:17:51.057Z,100575.84
2022-11-05T12:20:31.270Z,100575.98
2022-11-05T12:23:29.845Z,100577.30
2022-11-05T12:26:24.700Z,100573.66
2022-11-05T12:29:19.614Z,100579.52
2022-11-05T12:32:22.240Z,100582.15
2022-11-05T12:35:18.258Z,100589.77
2022-11-05T12:38:09.573Z,100591.70
2022-11-05T12:40:58.109Z,100596.30
2022-11-05T12:44:00.948Z,100603.19
2022-11-05T12:46:50.809Z,100602.72
2022-11-05T12:49:47.433Z,100603.67
2022-11-05T12:53:12.456Z,100607.60
2022-11-05T12:55:48.856Z,100614.42
2022-11-05T12:58:27.809Z,100613.21
2022-11-05T13:01:08.666Z,100614.06
2022-11-05T13:03:54.535Z,100612.25
2022-11-05T13:06:35.877Z,100614.17
2022-11-05T13:09:28.760Z,100616.66
2022-11-05T13:12:03.668Z,100620.42
2022-11-05T13:14:57.605Z,100622.45
2022-11-05T13:17:38.614Z,100629.27
2022-11-05T13:20:17.587Z,100629.95
2022-11-05T13:22:51.964Z,100630.30
2022-11-05T13:25:28.267Z,100631.95
2022-11-05T13:28:46.823Z,100633.34
2022-11-05T13:31:21.576Z,100630.59
2022-11-05T13:33:52.229Z,100637.58
2022-11-05T13:36:51.183Z,100642.75
2022-11-05T13:39:36.570Z,100645.12
2022-11-05T13:42:32.439Z,100641.85
2022-11-05T13:45:50.706Z,100644.65
2022-11-05T13:48:30.722Z,100645.49
2022-11-05T13:51:14.001Z,100649.14
2022-11-05T13:54:33.145Z,100646.91
2022-11-05T13:57:26.870Z,100644.96
2022-11-05T14:00:12.525Z,100643.72
2022-11-05T14:02:48.037Z,100641.73
2022-11-05T14:05:27.205Z,100641.88
2022-11-05T14:07:59.015Z,100645.08
2022-11-05T14:10:41.807Z,100647.45
2022-11-05T14:13:51.304Z,100656.04
2022-11-05T14:16:23.093Z,100663.61
2022-11-05T14:19:20.287Z,100668.85
2022-11-05T14:21:57.673Z,100671.88
2022-11-05T14:24:44.205Z,100674.91
2022-11-05T14:27:12.069Z,100675.50
2022-11-05T14:29:48.256Z,100677.25
2022-11-05T14:32:25.365Z,100679.73
2022-11-05T14:35:15.289Z,100684.52
2022-11-05T14:37:59.017Z,100686.20
2022-11-05T14:40:44.653Z,100682.39
2022-11-05T14:43:26.835Z,100680.36
2022-11-05T14:46:06.099Z,100675.80
2022-11-05T14:48:46.549Z,100687.45
2022-11-05T14:51:40.245Z,100690.58
2022-11-05T14:54:27.522Z,100699.17
2022-11-05T14:56:59.417Z,100703.49
2022-11-05T14:59:28.329Z,100705.98
2022-11-05T15:02:11.309Z,100711.46
2022-11-05T15:04:45.571Z,100714.71
2022-11-05T15:07:35.402Z,100714.44
2022-11-05T15:10:14.005Z,100720.02
2022-11-05T15:12:52.345Z,100724.48
2022-11-05T15:15:28.031Z,100726.95
2022-11-05T15:18:29.419Z,100726.67
2022-11-05T15:21:02.256Z,100723.76
2022-11-05T15:23:40.709Z,100724.67
2022-11-05T15:26:28.273Z,100725.41
2022-11-05T15:28:56.390Z,100723.27
2022-11-05T15:31:37.540Z,100723.31
2022-11-05T15:34:25.722Z,100724.55
2022-11-05T15:37:00.553Z,100723.33
2022-11-05T15:39:46.848Z,100730.45
2022-11-05T15:42:24.611Z,100734.63
2022-11-05T15:44:58.289Z,100740.05
2022-11-05T15:47:28.992Z,100745.66
2022-11-05T15:50:06.511Z,100745.13
2022-11-05T15:52:45.675Z,100750.23
2022-11-05T15:55:13.518Z,100752.83
2022-11-05T15:57:51.299Z,100761.14
2022-11-05T16:00:27.045Z,100770.03
2022-11-05T16:03:18.162Z,100779.59
2022-11-05T16:05:48.420Z,100786.23
2022-11-05T16:08:24.554Z,100787.38
2022-11-05T16:10:56.261Z,100782.16
2022-11-05T16:13:34.783Z,100775.91
2022-11-05T16:16:31.382Z,100782.67
2022-11-05T16:18:59.882Z,100783.17
2022-11-05T16:21:27.808Z,100781.55
2022-11-05T16:24:00.409Z,100780.27
2022-11-05T16:27:01.867Z,100786.93
2022-11-05T16:29:29.952Z,100783.15
2022-11-05T16:32:01.107Z,100784.27
2022-11-05T16:34:47.299Z,100787.64
2022-11-05T16:37:20.580Z,100799.37
2022-11-05T16:39:48.592Z,100803.54
2022-11-05T16:42:22.663Z,100806.05
2022-11-05T16:44:52.593Z,100810.98
2022-11-05T16:47:22.457Z,100819.27
2022-11-05T16:49:50.782Z,100817.44
2022-11-05T16:52:19.323Z,100817.41
2022-11-05T16:54:47.265Z,100818.47
2022-11-05T16:57:32.167Z,100824.52
2022-11-05T17:00:00.861Z,100819.89
2022-11-05T17:02:29.003Z,100825.16
2022-11-05T17:04:57.069Z,100825.65
2022-11-05T17:07:25.063Z,100824.29
2022-11-05T17:09:53.050Z,100824.32
2022-11-05T17:12:21.012Z,100823.92
2022-11-05T17:14:48.937Z,100832.02
2022-11-05T17:17:16.854Z,100835.25
2022-11-05T17:19:46.070Z,100837.45
2022-11-05T17:22:13.961Z,100841.01
2022-11-05T17:24:41.925Z,100846.04
2022-11-05T17:27:09.808Z,100850.33
2022-11-05T17:29:37.680Z,100853.29
2022-11-05T17:32:06.399Z,100851.95
2022-11-05T17:34:34.370Z,100852.93
2022-11-05T17:37:02.276Z,100856.71
2022-11-05T17:39:31.798Z,100857.13
2022-11-05T17:42:00.227Z,100864.98
2022-11-05T17:44:28.090Z,100872.45
2022-11-05T17:46:55.964Z,100875.45
2022-11-05T17:49:23.845Z,100877.85
2022-11-05T17:51:51.695Z,100882.18
2022-11-05T17:54:19.608Z,100880.84
2022-11-05T17:56:47.465Z,100879.15
2022-11-05T17:59:17.697Z,100882.03
2022-11-05T18:01:46.063Z,100889.45
2022-11-05T18:04:14.228Z,100895.52
2022-11-05T18:06:43.055Z,100900.84
2022-11-05T18:09:11.666Z,100902.56
2022-11-05T18:11:40.768Z,100905.36
2022-11-05T18:14:09.726Z,100908.85
2022-11-05T18:16:38.084Z,100909.67
2022-11-05T18:19:06.241Z,100911.72
2022-11-05T18:21:34.130Z,100908.81
2022-11-05T18:24:04.772Z,100911.65
2022-11-05T18:26:33.788Z,100909.20
2022-11-05T18:29:04.155Z,100910.02
2022-11-05T18:31:32.057Z,100913.01
2022-11-05T18:34:00.264Z,100917.78
2022-11-05T18:36:31.189Z,100921.78
2022-11-05T18:39:02.619Z,100926.11
2022-11-05T18:41:30.960Z,100926.50
2022-11-05T18:44:03.275Z,100925.45
2022-11-05T18:49:20.590Z,100916.98
2022-11-05T18:51:48.422Z,100920.84
2022-11-05T18:54:16.856Z,100915.34
2022-11-05T18:56:45.703Z,100922.62
2022-11-05T19:02:08.474Z,100924.17
2022-11-05T19:04:37.562Z,100925.52
2022-11-05T19:07:08.213Z,100925.36
2022-11-05T19:09:38.309Z,100928.16
2022-11-05T19:12:07.816Z,100930.20
2022-11-05T19:14:36.092Z,100930.95
2022-11-05T19:17:04.309Z,100931.95
2022-11-05T19:19:32.357Z,100934.48
2022-11-05T19:22:00.426Z,100936.13
2022-11-05T19:24:28.369Z,100937.41
2022-11-05T19:26:56.625Z,100939.27
2022-11-05T19:29:24.594Z,100939.67
2022-11-05T19:31:52.706Z,100940.24
2022-11-05T19:34:20.810Z,100936.48
2022-11-05T19:36:48.735Z,100941.08
2022-11-05T19:39:16.984Z,100947.31
2022-11-05T19:41:44.924Z,100944.14
2022-11-05T19:44:12.794Z,100950.77
2022-11-05T19:46:41.396Z,100958.96
2022-11-05T19:49:10.579Z,100963.38
2022-11-05T19:51:39.460Z,100961.88
2022-11-05T19:54:08.541Z,100963.49
2022-11-05T19:56:38.472Z,100961.95
2022-11-05T19:59:10.896Z,100953.52
2022-11-05T20:01:39.190Z,100964.36
2022-11-05T20:04:12.116Z,100971.84
2022-11-05T20:06:40.708Z,100973.77
2022-11-05T20:09:22.231Z,100976.81
2022-11-05T20:11:54.268Z,100976.55
2022-11-05T20:14:24.691Z,100980.55
2022-11-05T20:16:54.687Z,100984.35
2022-11-05T20:19:23.320Z,100982.71
2022-11-05T20:21:51.488Z,100987.38
2022-11-05T20:24:25.278Z,100990.64
2022-11-05T20:26:56.144Z,100990.84
2022-11-05T20:29:30.494Z,100990.39
2022-11-05T20:31:58.644Z,100997.23
2022-11-05T20:34:29.692Z,100996.29
2022-11-05T20:36:57.696Z,100999.52
2022-11-05T20:39:26.263Z,101003.80
2022-11-05T20:41:56.333Z,100999.24
2022-11-05T20:44:24.339Z,100997.98
2022-11-05T20:46:52.403Z,100998.86
2022-11-05T20:49:25.205Z,100998.92
2022-11-05T20:51:54.355Z,101001.48
2022-11-05T20:54:22.416Z,100999.85
2022-11-05T20:56:50.707Z,101000.23
2022-11-05T20:59:19.520Z,101001.58
2022-11-05T21:01:48.094Z,101004.07
2022-11-05T21:04:16.412Z,101009.64
2022-11-05T21:06:44.391Z,101011.88
2022-11-05T21:09:13.228Z,101005.92
2022-11-05T21:11:59.910Z,101006.27
2022-11-05T21:14:27.898Z,101006.72
2022-11-05T21:16:55.937Z,101013.79
2022-11-05T21:19:24.024Z,101014.19
2022-11-05T21:21:51.983Z,101009.08
2022-11-05T21:24:19.916Z,101018.47
2022-11-05T21:26:49.838Z,101017.77
2022-11-05T21:29:18.668Z,101023.55
2022-11-05T21:31:47.170Z,101026.09
2022-11-05T21:34:16.747Z,101029.98
2022-11-05T21:36:45.077Z,101025.31
2022-11-05T21:39:13.859Z,101027.89
2022-11-05T21:41:42.712Z,101023.21
2022-11-05T21:44:10.810Z,101022.83
2022-11-05T21:46:38.797Z,101023.13
2022-11-05T21:49:06.916Z,101022.10
2022-11-05T21:51:53.566Z,101021.06
2022-11-05T21:54:40.314Z,101024.26
2022-11-05T21:57:33.657Z,101026.69
2022-11-05T22:00:10.525Z,101028.34
2022-11-05T22:02:38.707Z,101024.27
2022-11-05T22:05:08.168Z,101021.10
2022-11-05T22:07:38.853Z,101022.64
2022-11-05T22:10:15.829Z,101015.14
2022-11-05T22:12:45.532Z,101013.19
2022-11-05T22:15:14.008Z,101011.78
2022-11-05T22:17:46.540Z,101016.71
2022-11-05T22:20:15.875Z,101023.42
2022-11-05T22:22:45.008Z,101023.67
2022-11-05T22:25:14.241Z,101030.44
2022-11-05T22:27:43.737Z,101030.78
2022-11-05T22:30:13.353Z,101028.20
2022-11-05T22:32:41.657Z,101029.81
2022-11-05T22:35:10.220Z,101029.34
2022-11-05T22:37:38.218Z,101030.35
2022-11-05T22:40:06.896Z,101023.41
2022-11-05T22:42:34.902Z,101029.84
2022-11-05T22:45:03.476Z,101031.65
2022-11-05T22:47:31.459Z,101026.66
2022-11-05T22:49:59.506Z,101023.98
2022-11-05T22:52:27.428Z,101022.39
2022-11-05T22:54:55.496Z,101030.49
2022-11-05T22:57:23.583Z,101028.16
2022-11-05T22:59:51.535Z,101032.58
2022-11-05T23:02:19.928Z,101031.96
2022-11-05T23:04:49.492Z,101032.95
2022-11-05T23:07:36.867Z,101034.73
2022-11-05T23:10:40.647Z,101032.75
2022-11-05T23:13:08.588Z,101032.60
2022-11-05T23:15:55.191Z,101031.35
2022-11-05T23:18:41.853Z,101028.77
2022-11-05T23:21:28.676Z,101025.15
2022-11-05T23:24:05.437Z,101024.58
2022-11-05T23:26:50.619Z,101027.39
2022-11-05T23:29:24.833Z,101034.94
2022-11-05T23:32:12.000Z,101030.91
2022-11-05T23:34:40.188Z,101026.98
2022-11-05T23:37:27.490Z,101027.37
2022-11-05T23:39:55.388Z,101032.83
2022-11-05T23:42:42.199Z,101031.31
2022-11-05T23:45:29.264Z,101033.05
2022-11-05T23:48:16.671Z,101038.61
2022-11-05T23:50:50.812Z,101034.66
2022-11-05T23:53:19.305Z,101036.58
2022-11-05T23:55:48.471Z,101039.69
2022-11-05T23:58:17.668Z,101039.95
